sensor_id;sensor_type;location;lat;lon;timestamp;P1;durP1;ratioP1;P2;durP2;ratioP2
14326;SDS011;7247;53.330;-1.180;2022-11-18T00:01:08;2.20;;;2.00;;
14326;SDS011;7247;53.330;-1.180;2022-11-18T00:03:35;2.30;;;2.10;;
14326;SDS011;7247;53.330;-1.180;2022-11-18T00:06:02;2.17;;;1.97;;
14326;SDS011;7247;53.330;-1.180;2022-11-18T00:08:28;3.63;;;2.40;;
14326;SDS011;7247;53.330;-1.180;2022-11-18T00:10:55;2.67;;;2.47;;
14326;SDS011;7247;53.330;-1.180;2022-11-18T00:13:21;2.93;;;2.27;;
14326;SDS011;7247;53.330;-1.180;2022-11-18T00:16:06;2.77;;;2.50;;
14326;SDS011;7247;53.330;-1.180;2022-11-18T00:18:34;2.47;;;2.27;;
14326;SDS011;7247;53.330;-1.180;2022-11-18T00:21:00;2.90;;;2.60;;
14326;SDS011;7247;53.330;-1.180;2022-11-18T00:23:27;2.83;;;2.60;;
14326;SDS011;7247;53.330;-1.180;2022-11-18T00:25:53;3.63;;;2.60;;
14326;SDS011;7247;53.330;-1.180;2022-11-18T00:28:20;3.23;;;2.63;;
14326;SDS011;7247;53.330;-1.180;2022-11-18T00:30:46;3.90;;;2.50;;
14326;SDS011;7247;53.330;-1.180;2022-11-18T00:33:13;2.67;;;2.47;;
14326;SDS011;7247;53.330;-1.180;2022-11-18T00:35:40;2.57;;;2.37;;
14326;SDS011;7247;53.330;-1.180;2022-11-18T00:38:07;3.03;;;2.50;;
14326;SDS011;7247;53.330;-1.180;2022-11-18T00:40:33;2.90;;;2.53;;
14326;SDS011;7247;53.330;-1.180;2022-11-18T00:43:00;2.50;;;2.30;;
14326;SDS011;7247;53.330;-1.180;2022-11-18T00:45:25;2.60;;;2.40;;
14326;SDS011;7247;53.330;-1.180;2022-11-18T00:47:51;2.60;;;2.40;;
14326;SDS011;7247;53.330;-1.180;2022-11-18T00:50:18;2.53;;;2.33;;
14326;SDS011;7247;53.330;-1.180;2022-11-18T00:52:46;2.27;;;2.10;;
14326;SDS011;7247;53.330;-1.180;2022-11-18T00:55:12;2.33;;;2.13;;
14326;SDS011;7247;53.330;-1.180;2022-11-18T00:57:39;3.63;;;2.43;;
14326;SDS011;7247;53.330;-1.180;2022-11-18T01:00:06;3.47;;;2.33;;
14326;SDS011;7247;53.330;-1.180;2022-11-18T01:02:32;2.57;;;2.37;;
14326;SDS011;7247;53.330;-1.180;2022-11-18T01:04:59;4.43;;;2.80;;
14326;SDS011;7247;53.330;-1.180;2022-11-18T01:07:25;3.30;;;3.00;;
14326;SDS011;7247;53.330;-1.180;2022-11-18T01:09:53;2.83;;;2.63;;
14326;SDS011;7247;53.330;-1.180;2022-11-18T01:12:19;2.90;;;2.70;;
14326;SDS011;7247;53.330;-1.180;2022-11-18T01:15:03;2.73;;;2.53;;
14326;SDS011;7247;53.330;-1.180;2022-11-18T01:17:30;2.50;;;2.30;;
14326;SDS011;7247;53.330;-1.180;2022-11-18T01:19:56;2.70;;;2.50;;
14326;SDS011;7247;53.330;-1.180;2022-11-18T01:22:23;2.90;;;2.70;;
14326;SDS011;7247;53.330;-1.180;2022-11-18T01:24:49;3.03;;;2.73;;
14326;SDS011;7247;53.330;-1.180;2022-11-18T01:27:17;3.03;;;2.83;;
14326;SDS011;7247;53.330;-1.180;2022-11-18T01:29:43;3.23;;;2.93;;
14326;SDS011;7247;53.330;-1.180;2022-11-18T01:32:10;2.77;;;2.57;;
14326;SDS011;7247;53.330;-1.180;2022-11-18T01:34:36;4.13;;;2.90;;
14326;SDS011;7247;53.330;-1.180;2022-11-18T01:37:03;2.70;;;2.50;;
14326;SDS011;7247;53.330;-1.180;2022-11-18T01:39:29;2.67;;;2.47;;
14326;SDS011;7247;53.330;-1.180;2022-11-18T01:41:56;2.47;;;2.27;;
14326;SDS011;7247;53.330;-1.180;2022-11-18T01:47:09;2.40;;;2.20;;
14326;SDS011;7247;53.330;-1.180;2022-11-18T01:49:35;2.33;;;2.07;;
14326;SDS011;7247;53.330;-1.180;2022-11-18T01:52:02;2.73;;;1.90;;
14326;SDS011;7247;53.330;-1.180;2022-11-18T01:54:29;2.13;;;1.93;;
14326;SDS011;7247;53.330;-1.180;2022-11-18T01:56:57;2.87;;;2.20;;
14326;SDS011;7247;53.330;-1.180;2022-11-18T01:59:25;2.10;;;2.00;;
14326;SDS011;7247;53.330;-1.180;2022-11-18T02:01:53;2.73;;;2.23;;
14326;SDS011;7247;53.330;-1.180;2022-11-18T02:04:21;2.00;;;1.90;;
14326;SDS011;7247;53.330;-1.180;2022-11-18T02:06:48;3.53;;;2.00;;
14326;SDS011;7247;53.330;-1.180;2022-11-18T02:09:14;2.13;;;1.93;;
14326;SDS011;7247;53.330;-1.180;2022-11-18T02:11:41;1.80;;;1.70;;
14326;SDS011;7247;53.330;-1.180;2022-11-18T02:14:19;2.10;;;1.90;;
14326;SDS011;7247;53.330;-1.180;2022-11-18T02:16:53;2.30;;;2.10;;
14326;SDS011;7247;53.330;-1.180;2022-11-18T02:19:30;2.50;;;2.07;;
14326;SDS011;7247;53.330;-1.180;2022-11-18T02:22:06;2.10;;;1.80;;
14326;SDS011;7247;53.330;-1.180;2022-11-18T02:24:39;1.90;;;1.80;;
14326;SDS011;7247;53.330;-1.180;2022-11-18T02:27:12;2.40;;;2.20;;
14326;SDS011;7247;53.330;-1.180;2022-11-18T02:29:46;2.70;;;2.30;;
14326;SDS011;7247;53.330;-1.180;2022-11-18T02:32:16;2.80;;;2.60;;
14326;SDS011;7247;53.330;-1.180;2022-11-18T02:34:47;2.80;;;2.60;;
14326;SDS011;7247;53.330;-1.180;2022-11-18T02:37:16;2.63;;;2.43;;
14326;SDS011;7247;53.330;-1.180;2022-11-18T02:39:46;3.80;;;2.50;;
14326;SDS011;7247;53.330;-1.180;2022-11-18T02:42:15;3.03;;;2.53;;
14326;SDS011;7247;53.330;-1.180;2022-11-18T02:44:42;3.17;;;2.80;;
14326;SDS011;7247;53.330;-1.180;2022-11-18T02:47:12;5.13;;;2.57;;
14326;SDS011;7247;53.330;-1.180;2022-11-18T02:49:41;2.73;;;2.47;;
14326;SDS011;7247;53.330;-1.180;2022-11-18T02:52:09;2.73;;;2.53;;
14326;SDS011;7247;53.330;-1.180;2022-11-18T02:54:39;2.80;;;2.50;;
14326;SDS011;7247;53.330;-1.180;2022-11-18T02:57:06;2.97;;;2.20;;
14326;SDS011;7247;53.330;-1.180;2022-11-18T02:59:33;2.43;;;2.23;;
14326;SDS011;7247;53.330;-1.180;2022-11-18T03:01:59;2.10;;;1.90;;
14326;SDS011;7247;53.330;-1.180;2022-11-18T03:04:27;2.30;;;2.10;;
14326;SDS011;7247;53.330;-1.180;2022-11-18T03:06:55;3.63;;;2.37;;
14326;SDS011;7247;53.330;-1.180;2022-11-18T03:09:26;2.67;;;2.30;;
14326;SDS011;7247;53.330;-1.180;2022-11-18T03:11:55;2.27;;;2.00;;
14326;SDS011;7247;53.330;-1.180;2022-11-18T03:14:27;1.90;;;1.80;;
14326;SDS011;7247;53.330;-1.180;2022-11-18T03:16:58;2.87;;;1.90;;
14326;SDS011;7247;53.330;-1.180;2022-11-18T03:19:31;2.33;;;1.80;;
14326;SDS011;7247;53.330;-1.180;2022-11-18T03:22:01;2.27;;;1.83;;
14326;SDS011;7247;53.330;-1.180;2022-11-18T03:24:32;1.83;;;1.73;;
14326;SDS011;7247;53.330;-1.180;2022-11-18T03:27:00;1.80;;;1.70;;
14326;SDS011;7247;53.330;-1.180;2022-11-18T03:29:31;2.87;;;1.60;;
14326;SDS011;7247;53.330;-1.180;2022-11-18T03:31:58;1.73;;;1.63;;
14326;SDS011;7247;53.330;-1.180;2022-11-18T03:34:30;2.47;;;1.80;;
14326;SDS011;7247;53.330;-1.180;2022-11-18T03:36:59;1.97;;;1.70;;
14326;SDS011;7247;53.330;-1.180;2022-11-18T03:39:26;1.67;;;1.53;;
14326;SDS011;7247;53.330;-1.180;2022-11-18T03:41:54;3.17;;;1.63;;
14326;SDS011;7247;53.330;-1.180;2022-11-18T03:44:22;3.70;;;1.47;;
14326;SDS011;7247;53.330;-1.180;2022-11-18T03:46:51;3.37;;;1.63;;
14326;SDS011;7247;53.330;-1.180;2022-11-18T03:49:21;1.83;;;1.53;;
14326;SDS011;7247;53.330;-1.180;2022-11-18T03:51:52;3.37;;;1.50;;
14326;SDS011;7247;53.330;-1.180;2022-11-18T03:54:21;2.97;;;1.53;;
14326;SDS011;7247;53.330;-1.180;2022-11-18T03:56:50;2.87;;;1.50;;
14326;SDS011;7247;53.330;-1.180;2022-11-18T03:59:19;2.20;;;1.60;;
14326;SDS011;7247;53.330;-1.180;2022-11-18T04:01:48;1.77;;;1.50;;
14326;SDS011;7247;53.330;-1.180;2022-11-18T04:04:17;1.57;;;1.40;;
14326;SDS011;7247;53.330;-1.180;2022-11-18T04:06:45;2.13;;;1.50;;
14326;SDS011;7247;53.330;-1.180;2022-11-18T04:09:14;2.30;;;1.43;;
14326;SDS011;7247;53.330;-1.180;2022-11-18T04:11:44;1.97;;;1.50;;
14326;SDS011;7247;53.330;-1.180;2022-11-18T04:14:30;2.33;;;1.40;;
14326;SDS011;7247;53.330;-1.180;2022-11-18T04:16:57;2.10;;;1.37;;
14326;SDS011;7247;53.330;-1.180;2022-11-18T04:19:23;3.87;;;1.10;;
14326;SDS011;7247;53.330;-1.180;2022-11-18T04:21:50;1.30;;;1.17;;
14326;SDS011;7247;53.330;-1.180;2022-11-18T04:24:18;1.70;;;1.20;;
14326;SDS011;7247;53.330;-1.180;2022-11-18T04:26:44;2.40;;;1.10;;
14326;SDS011;7247;53.330;-1.180;2022-11-18T04:29:10;2.53;;;1.30;;
14326;SDS011;7247;53.330;-1.180;2022-11-18T04:31:37;1.80;;;1.03;;
14326;SDS011;7247;53.330;-1.180;2022-11-18T04:34:03;1.53;;;1.00;;
14326;SDS011;7247;53.330;-1.180;2022-11-18T04:36:30;1.23;;;0.90;;
14326;SDS011;7247;53.330;-1.180;2022-11-18T04:38:56;2.73;;;1.10;;
14326;SDS011;7247;53.330;-1.180;2022-11-18T04:41:24;1.50;;;0.90;;
14326;SDS011;7247;53.330;-1.180;2022-11-18T04:44:10;2.83;;;0.93;;
14326;SDS011;7247;53.330;-1.180;2022-11-18T04:46:38;1.37;;;0.90;;
14326;SDS011;7247;53.330;-1.180;2022-11-18T04:49:05;1.50;;;1.13;;
14326;SDS011;7247;53.330;-1.180;2022-11-18T04:51:32;2.67;;;1.10;;
14326;SDS011;7247;53.330;-1.180;2022-11-18T04:53:58;1.00;;;0.73;;
14326;SDS011;7247;53.330;-1.180;2022-11-18T04:56:26;1.07;;;0.90;;
14326;SDS011;7247;53.330;-1.180;2022-11-18T04:58:52;0.83;;;0.70;;
14326;SDS011;7247;53.330;-1.180;2022-11-18T05:01:19;2.03;;;0.80;;
14326;SDS011;7247;53.330;-1.180;2022-11-18T05:03:45;1.17;;;0.70;;
14326;SDS011;7247;53.330;-1.180;2022-11-18T05:06:11;2.57;;;0.70;;
14326;SDS011;7247;53.330;-1.180;2022-11-18T05:08:38;2.70;;;0.83;;
14326;SDS011;7247;53.330;-1.180;2022-11-18T05:11:04;2.87;;;1.00;;
14326;SDS011;7247;53.330;-1.180;2022-11-18T05:13:46;2.60;;;0.90;;
14326;SDS011;7247;53.330;-1.180;2022-11-18T05:16:15;3.43;;;0.90;;
14326;SDS011;7247;53.330;-1.180;2022-11-18T05:18:41;0.70;;;0.70;;
14326;SDS011;7247;53.330;-1.180;2022-11-18T05:21:07;1.97;;;0.90;;
14326;SDS011;7247;53.330;-1.180;2022-11-18T05:23:34;1.43;;;0.77;;
14326;SDS011;7247;53.330;-1.180;2022-11-18T05:26:01;0.90;;;0.80;;
14326;SDS011;7247;53.330;-1.180;2022-11-18T05:28:28;1.50;;;0.80;;
14326;SDS011;7247;53.330;-1.180;2022-11-18T05:30:56;0.97;;;0.77;;
14326;SDS011;7247;53.330;-1.180;2022-11-18T05:33:22;1.73;;;0.83;;
14326;SDS011;7247;53.330;-1.180;2022-11-18T05:35:48;1.67;;;0.80;;
14326;SDS011;7247;53.330;-1.180;2022-11-18T05:38:15;2.27;;;1.03;;
14326;SDS011;7247;53.330;-1.180;2022-11-18T05:40:41;1.83;;;0.90;;
14326;SDS011;7247;53.330;-1.180;2022-11-18T05:43:08;2.37;;;0.80;;
14326;SDS011;7247;53.330;-1.180;2022-11-18T05:45:36;2.80;;;1.03;;
14326;SDS011;7247;53.330;-1.180;2022-11-18T05:48:05;1.70;;;0.83;;
14326;SDS011;7247;53.330;-1.180;2022-11-18T05:50:32;2.97;;;1.00;;
14326;SDS011;7247;53.330;-1.180;2022-11-18T05:52:59;2.00;;;0.80;;
14326;SDS011;7247;53.330;-1.180;2022-11-18T05:55:27;1.43;;;0.73;;
14326;SDS011;7247;53.330;-1.180;2022-11-18T05:57:54;1.47;;;0.80;;
14326;SDS011;7247;53.330;-1.180;2022-11-18T06:00:21;1.10;;;0.83;;
14326;SDS011;7247;53.330;-1.180;2022-11-18T06:02:47;2.30;;;0.90;;
14326;SDS011;7247;53.330;-1.180;2022-11-18T06:05:16;1.10;;;0.80;;
14326;SDS011;7247;53.330;-1.180;2022-11-18T06:07:44;2.17;;;0.90;;
14326;SDS011;7247;53.330;-1.180;2022-11-18T06:10:11;2.20;;;0.90;;
14326;SDS011;7247;53.330;-1.180;2022-11-18T06:12:41;3.77;;;1.00;;
14326;SDS011;7247;53.330;-1.180;2022-11-18T06:15:10;1.27;;;0.90;;
14326;SDS011;7247;53.330;-1.180;2022-11-18T06:17:39;2.73;;;0.90;;
14326;SDS011;7247;53.330;-1.180;2022-11-18T06:20:08;2.23;;;0.87;;
14326;SDS011;7247;53.330;-1.180;2022-11-18T06:22:36;2.47;;;0.90;;
14326;SDS011;7247;53.330;-1.180;2022-11-18T06:25:03;3.33;;;0.70;;
14326;SDS011;7247;53.330;-1.180;2022-11-18T06:27:29;1.60;;;0.97;;
14326;SDS011;7247;53.330;-1.180;2022-11-18T06:29:56;1.60;;;0.90;;
14326;SDS011;7247;53.330;-1.180;2022-11-18T06:32:22;1.20;;;0.90;;
14326;SDS011;7247;53.330;-1.180;2022-11-18T06:34:49;2.63;;;0.73;;
14326;SDS011;7247;53.330;-1.180;2022-11-18T06:37:16;4.73;;;0.97;;
14326;SDS011;7247;53.330;-1.180;2022-11-18T06:39:44;1.73;;;0.80;;
14326;SDS011;7247;53.330;-1.180;2022-11-18T06:42:10;2.67;;;0.73;;
14326;SDS011;7247;53.330;-1.180;2022-11-18T06:44:57;2.33;;;0.67;;
14326;SDS011;7247;53.330;-1.180;2022-11-18T06:47:23;1.57;;;0.80;;
14326;SDS011;7247;53.330;-1.180;2022-11-18T06:49:49;1.70;;;0.90;;
14326;SDS011;7247;53.330;-1.180;2022-11-18T06:52:15;1.67;;;0.90;;
14326;SDS011;7247;53.330;-1.180;2022-11-18T06:54:43;1.50;;;0.90;;
14326;SDS011;7247;53.330;-1.180;2022-11-18T06:57:10;4.07;;;0.90;;
14326;SDS011;7247;53.330;-1.180;2022-11-18T06:59:36;1.90;;;0.90;;
14326;SDS011;7247;53.330;-1.180;2022-11-18T07:02:03;2.07;;;0.70;;
14326;SDS011;7247;53.330;-1.180;2022-11-18T07:04:30;3.63;;;0.90;;
14326;SDS011;7247;53.330;-1.180;2022-11-18T07:06:57;1.70;;;0.90;;
14326;SDS011;7247;53.330;-1.180;2022-11-18T07:09:24;1.80;;;0.70;;
14326;SDS011;7247;53.330;-1.180;2022-11-18T07:11:51;2.47;;;0.87;;
14326;SDS011;7247;53.330;-1.180;2022-11-18T07:14:18;3.43;;;1.13;;
14326;SDS011;7247;53.330;-1.180;2022-11-18T07:16:44;3.10;;;0.83;;
14326;SDS011;7247;53.330;-1.180;2022-11-18T07:19:11;2.53;;;1.10;;
14326;SDS011;7247;53.330;-1.180;2022-11-18T07:21:38;1.83;;;1.00;;
14326;SDS011;7247;53.330;-1.180;2022-11-18T07:24:05;2.67;;;1.00;;
14326;SDS011;7247;53.330;-1.180;2022-11-18T07:26:32;2.33;;;0.90;;
14326;SDS011;7247;53.330;-1.180;2022-11-18T07:29:00;1.10;;;0.83;;
14326;SDS011;7247;53.330;-1.180;2022-11-18T07:31:27;2.57;;;0.80;;
14326;SDS011;7247;53.330;-1.180;2022-11-18T07:33:53;1.43;;;0.80;;
14326;SDS011;7247;53.330;-1.180;2022-11-18T07:36:20;1.60;;;0.90;;
14326;SDS011;7247;53.330;-1.180;2022-11-18T07:38:47;2.47;;;0.80;;
14326;SDS011;7247;53.330;-1.180;2022-11-18T07:41:14;2.43;;;0.90;;
14326;SDS011;7247;53.330;-1.180;2022-11-18T07:43:40;1.27;;;0.80;;
14326;SDS011;7247;53.330;-1.180;2022-11-18T07:46:13;2.03;;;0.93;;
14326;SDS011;7247;53.330;-1.180;2022-11-18T07:48:41;4.87;;;1.80;;
14326;SDS011;7247;53.330;-1.180;2022-11-18T07:51:08;5.40;;;2.90;;
14326;SDS011;7247;53.330;-1.180;2022-11-18T07:53:34;9.53;;;2.50;;
14326;SDS011;7247;53.330;-1.180;2022-11-18T07:56:01;5.10;;;2.83;;
14326;SDS011;7247;53.330;-1.180;2022-11-18T07:58:28;7.70;;;2.70;;
14326;SDS011;7247;53.330;-1.180;2022-11-18T08:00:54;5.10;;;1.47;;
14326;SDS011;7247;53.330;-1.180;2022-11-18T08:03:24;5.27;;;2.00;;
14326;SDS011;7247;53.330;-1.180;2022-11-18T08:05:52;3.37;;;2.00;;
14326;SDS011;7247;53.330;-1.180;2022-11-18T08:08:18;2.53;;;1.50;;
14326;SDS011;7247;53.330;-1.180;2022-11-18T08:10:45;6.33;;;2.00;;
14326;SDS011;7247;53.330;-1.180;2022-11-18T08:13:11;3.10;;;1.37;;
14326;SDS011;7247;53.330;-1.180;2022-11-18T08:15:38;4.70;;;1.00;;
14326;SDS011;7247;53.330;-1.180;2022-11-18T08:18:04;2.67;;;0.90;;
14326;SDS011;7247;53.330;-1.180;2022-11-18T08:20:33;1.87;;;0.80;;
14326;SDS011;7247;53.330;-1.180;2022-11-18T08:23:00;4.43;;;1.00;;
14326;SDS011;7247;53.330;-1.180;2022-11-18T08:25:26;2.67;;;1.00;;
14326;SDS011;7247;53.330;-1.180;2022-11-18T08:27:53;2.53;;;1.27;;
14326;SDS011;7247;53.330;-1.180;2022-11-18T08:30:20;3.77;;;1.20;;
14326;SDS011;7247;53.330;-1.180;2022-11-18T08:32:46;2.83;;;1.10;;
14326;SDS011;7247;53.330;-1.180;2022-11-18T08:35:13;2.97;;;1.20;;
14326;SDS011;7247;53.330;-1.180;2022-11-18T08:37:41;3.60;;;1.20;;
14326;SDS011;7247;53.330;-1.180;2022-11-18T08:40:07;1.87;;;1.10;;
14326;SDS011;7247;53.330;-1.180;2022-11-18T08:42:34;4.70;;;1.50;;
14326;SDS011;7247;53.330;-1.180;2022-11-18T08:45:01;1.53;;;1.10;;
14326;SDS011;7247;53.330;-1.180;2022-11-18T08:47:29;2.03;;;1.03;;
14326;SDS011;7247;53.330;-1.180;2022-11-18T08:49:55;2.00;;;1.00;;
14326;SDS011;7247;53.330;-1.180;2022-11-18T08:52:22;2.33;;;1.17;;
14326;SDS011;7247;53.330;-1.180;2022-11-18T08:54:49;3.57;;;1.20;;
14326;SDS011;7247;53.330;-1.180;2022-11-18T08:57:16;4.10;;;1.37;;
14326;SDS011;7247;53.330;-1.180;2022-11-18T08:59:42;3.43;;;1.10;;
14326;SDS011;7247;53.330;-1.180;2022-11-18T09:02:11;3.00;;;1.20;;
14326;SDS011;7247;53.330;-1.180;2022-11-18T09:04:38;4.03;;;1.10;;
14326;SDS011;7247;53.330;-1.180;2022-11-18T09:07:04;5.30;;;1.10;;
14326;SDS011;7247;53.330;-1.180;2022-11-18T09:09:31;3.60;;;1.40;;
14326;SDS011;7247;53.330;-1.180;2022-11-18T09:11:59;4.10;;;1.20;;
14326;SDS011;7247;53.330;-1.180;2022-11-18T09:14:25;4.00;;;1.60;;
14326;SDS011;7247;53.330;-1.180;2022-11-18T09:16:52;5.70;;;2.03;;
14326;SDS011;7247;53.330;-1.180;2022-11-18T09:19:18;3.27;;;1.70;;
14326;SDS011;7247;53.330;-1.180;2022-11-18T09:21:44;2.60;;;1.40;;
14326;SDS011;7247;53.330;-1.180;2022-11-18T09:24:11;3.13;;;1.13;;
14326;SDS011;7247;53.330;-1.180;2022-11-18T09:26:37;2.07;;;1.37;;
14326;SDS011;7247;53.330;-1.180;2022-11-18T09:29:05;4.93;;;1.73;;
14326;SDS011;7247;53.330;-1.180;2022-11-18T09:31:32;5.07;;;1.80;;
14326;SDS011;7247;53.330;-1.180;2022-11-18T09:33:59;3.40;;;1.80;;
14326;SDS011;7247;53.330;-1.180;2022-11-18T09:36:25;6.23;;;2.00;;
14326;SDS011;7247;53.330;-1.180;2022-11-18T09:38:52;3.43;;;1.60;;
14326;SDS011;7247;53.330;-1.180;2022-11-18T09:41:25;4.67;;;1.27;;
14326;SDS011;7247;53.330;-1.180;2022-11-18T09:43:58;3.07;;;1.10;;
14326;SDS011;7247;53.330;-1.180;2022-11-18T09:46:28;3.93;;;1.00;;
14326;SDS011;7247;53.330;-1.180;2022-11-18T09:48:56;2.43;;;0.90;;
14326;SDS011;7247;53.330;-1.180;2022-11-18T09:51:40;5.97;;;1.03;;
14326;SDS011;7247;53.330;-1.180;2022-11-18T09:54:08;2.97;;;1.10;;
14326;SDS011;7247;53.330;-1.180;2022-11-18T09:56:36;3.53;;;1.30;;
14326;SDS011;7247;53.330;-1.180;2022-11-18T09:59:03;3.80;;;1.23;;
14326;SDS011;7247;53.330;-1.180;2022-11-18T10:01:31;5.27;;;1.47;;
14326;SDS011;7247;53.330;-1.180;2022-11-18T10:03:57;2.23;;;1.20;;
14326;SDS011;7247;53.330;-1.180;2022-11-18T10:06:25;3.70;;;1.23;;
14326;SDS011;7247;53.330;-1.180;2022-11-18T10:09:02;3.40;;;1.30;;
14326;SDS011;7247;53.330;-1.180;2022-11-18T10:11:33;4.97;;;1.90;;
14326;SDS011;7247;53.330;-1.180;2022-11-18T10:14:04;6.83;;;2.00;;
14326;SDS011;7247;53.330;-1.180;2022-11-18T10:16:38;3.63;;;1.93;;
14326;SDS011;7247;53.330;-1.180;2022-11-18T10:19:10;3.87;;;1.90;;
14326;SDS011;7247;53.330;-1.180;2022-11-18T10:21:45;2.70;;;1.17;;
14326;SDS011;7247;53.330;-1.180;2022-11-18T10:24:15;2.73;;;1.10;;
14326;SDS011;7247;53.330;-1.180;2022-11-18T10:26:42;4.37;;;1.00;;
14326;SDS011;7247;53.330;-1.180;2022-11-18T10:29:09;5.00;;;1.40;;
14326;SDS011;7247;53.330;-1.180;2022-11-18T10:31:37;4.93;;;1.37;;
14326;SDS011;7247;53.330;-1.180;2022-11-18T10:34:04;5.13;;;1.70;;
14326;SDS011;7247;53.330;-1.180;2022-11-18T10:36:31;4.93;;;1.37;;
14326;SDS011;7247;53.330;-1.180;2022-11-18T10:39:05;2.93;;;0.90;;
14326;SDS011;7247;53.330;-1.180;2022-11-18T10:41:36;3.60;;;1.10;;
14326;SDS011;7247;53.330;-1.180;2022-11-18T10:44:03;2.20;;;0.90;;
14326;SDS011;7247;53.330;-1.180;2022-11-18T10:46:30;3.60;;;1.20;;
14326;SDS011;7247;53.330;-1.180;2022-11-18T10:52:03;2.10;;;0.83;;
14326;SDS011;7247;53.330;-1.180;2022-11-18T10:54:30;4.07;;;1.10;;
14326;SDS011;7247;53.330;-1.180;2022-11-18T10:56:59;5.13;;;1.10;;
14326;SDS011;7247;53.330;-1.180;2022-11-18T10:59:29;5.27;;;1.13;;
14326;SDS011;7247;53.330;-1.180;2022-11-18T11:01:56;2.40;;;1.07;;
14326;SDS011;7247;53.330;-1.180;2022-11-18T11:04:22;2.27;;;1.10;;
14326;SDS011;7247;53.330;-1.180;2022-11-18T11:06:52;2.30;;;1.13;;
14326;SDS011;7247;53.330;-1.180;2022-11-18T11:09:24;2.50;;;1.10;;
14326;SDS011;7247;53.330;-1.180;2022-11-18T11:11:56;4.00;;;1.00;;
14326;SDS011;7247;53.330;-1.180;2022-11-18T11:14:23;3.50;;;1.10;;
14326;SDS011;7247;53.330;-1.180;2022-11-18T11:16:55;3.07;;;1.20;;
14326;SDS011;7247;53.330;-1.180;2022-11-18T11:19:22;5.23;;;1.30;;
14326;SDS011;7247;53.330;-1.180;2022-11-18T11:21:50;3.37;;;1.07;;
14326;SDS011;7247;53.330;-1.180;2022-11-18T11:24:18;4.37;;;1.27;;
14326;SDS011;7247;53.330;-1.180;2022-11-18T11:26:48;2.83;;;1.23;;
14326;SDS011;7247;53.330;-1.180;2022-11-18T11:29:20;2.50;;;1.10;;
14326;SDS011;7247;53.330;-1.180;2022-11-18T11:31:51;2.50;;;1.00;;
14326;SDS011;7247;53.330;-1.180;2022-11-18T11:34:22;3.07;;;1.20;;
14326;SDS011;7247;53.330;-1.180;2022-11-18T11:36:52;2.10;;;1.00;;
14326;SDS011;7247;53.330;-1.180;2022-11-18T11:39:29;2.80;;;0.90;;
14326;SDS011;7247;53.330;-1.180;2022-11-18T11:42:03;3.03;;;1.23;;
14326;SDS011;7247;53.330;-1.180;2022-11-18T11:44:35;2.80;;;0.87;;
14326;SDS011;7247;53.330;-1.180;2022-11-18T11:47:08;3.67;;;1.00;;
14326;SDS011;7247;53.330;-1.180;2022-11-18T11:49:56;4.50;;;1.20;;
14326;SDS011;7247;53.330;-1.180;2022-11-18T11:52:30;1.60;;;0.73;;
14326;SDS011;7247;53.330;-1.180;2022-11-18T11:54:59;1.27;;;0.90;;
14326;SDS011;7247;53.330;-1.180;2022-11-18T11:57:32;2.37;;;0.90;;
14326;SDS011;7247;53.330;-1.180;2022-11-18T12:00:05;2.30;;;0.90;;
14326;SDS011;7247;53.330;-1.180;2022-11-18T12:02:39;1.97;;;0.70;;
14326;SDS011;7247;53.330;-1.180;2022-11-18T12:05:10;1.43;;;0.80;;
14326;SDS011;7247;53.330;-1.180;2022-11-18T12:07:41;0.93;;;0.70;;
14326;SDS011;7247;53.330;-1.180;2022-11-18T12:15:49;2.37;;;0.87;;
14326;SDS011;7247;53.330;-1.180;2022-11-18T12:18:19;1.90;;;1.20;;
14326;SDS011;7247;53.330;-1.180;2022-11-18T12:20:47;1.70;;;0.80;;
14326;SDS011;7247;53.330;-1.180;2022-11-18T12:23:15;2.07;;;0.80;;
14326;SDS011;7247;53.330;-1.180;2022-11-18T12:25:43;1.17;;;0.90;;
14326;SDS011;7247;53.330;-1.180;2022-11-18T12:28:10;2.67;;;1.10;;
14326;SDS011;7247;53.330;-1.180;2022-11-18T12:30:36;1.10;;;0.80;;
14326;SDS011;7247;53.330;-1.180;2022-11-18T12:33:09;1.30;;;0.83;;
14326;SDS011;7247;53.330;-1.180;2022-11-18T12:35:40;1.57;;;0.93;;
14326;SDS011;7247;53.330;-1.180;2022-11-18T12:38:26;2.13;;;0.93;;
14326;SDS011;7247;53.330;-1.180;2022-11-18T12:40:53;2.50;;;0.83;;
14326;SDS011;7247;53.330;-1.180;2022-11-18T12:48:55;1.93;;;0.67;;
14326;SDS011;7247;53.330;-1.180;2022-11-18T12:54:28;4.67;;;1.43;;
14326;SDS011;7247;53.330;-1.180;2022-11-18T12:56:56;2.03;;;0.90;;
14326;SDS011;7247;53.330;-1.180;2022-11-18T12:59:33;4.10;;;1.30;;
14326;SDS011;7247;53.330;-1.180;2022-11-18T13:02:01;1.83;;;1.00;;
14326;SDS011;7247;53.330;-1.180;2022-11-18T13:04:29;2.17;;;1.00;;
14326;SDS011;7247;53.330;-1.180;2022-11-18T13:06:55;1.83;;;1.00;;
14326;SDS011;7247;53.330;-1.180;2022-11-18T13:09:24;2.20;;;0.80;;
14326;SDS011;7247;53.330;-1.180;2022-11-18T13:11:52;1.83;;;1.00;;
14326;SDS011;7247;53.330;-1.180;2022-11-18T13:14:24;1.73;;;0.97;;
14326;SDS011;7247;53.330;-1.180;2022-11-18T13:17:24;3.80;;;1.10;;
14326;SDS011;7247;53.330;-1.180;2022-11-18T13:20:20;2.27;;;1.00;;
14326;SDS011;7247;53.330;-1.180;2022-11-18T13:22:50;2.10;;;1.00;;
14326;SDS011;7247;53.330;-1.180;2022-11-18T13:25:34;1.63;;;0.83;;
14326;SDS011;7247;53.330;-1.180;2022-11-18T13:28:02;1.00;;;0.80;;
14326;SDS011;7247;53.330;-1.180;2022-11-18T13:30:31;1.30;;;0.90;;
14326;SDS011;7247;53.330;-1.180;2022-11-18T13:32:58;2.10;;;0.90;;
14326;SDS011;7247;53.330;-1.180;2022-11-18T13:35:26;2.57;;;0.90;;
14326;SDS011;7247;53.330;-1.180;2022-11-18T13:37:54;1.70;;;0.90;;
14326;SDS011;7247;53.330;-1.180;2022-11-18T13:40:21;1.43;;;0.87;;
14326;SDS011;7247;53.330;-1.180;2022-11-18T13:42:49;2.10;;;0.70;;
14326;SDS011;7247;53.330;-1.180;2022-11-18T13:45:15;3.50;;;0.90;;
14326;SDS011;7247;53.330;-1.180;2022-11-18T13:47:42;1.83;;;1.00;;
14326;SDS011;7247;53.330;-1.180;2022-11-18T13:50:13;2.03;;;1.20;;
14326;SDS011;7247;53.330;-1.180;2022-11-18T13:52:43;2.93;;;1.10;;
14326;SDS011;7247;53.330;-1.180;2022-11-18T13:55:14;2.77;;;1.00;;
14326;SDS011;7247;53.330;-1.180;2022-11-18T13:57:44;2.70;;;1.10;;
14326;SDS011;7247;53.330;-1.180;2022-11-18T14:00:18;1.83;;;0.90;;
14326;SDS011;7247;53.330;-1.180;2022-11-18T14:02:45;1.30;;;0.90;;
14326;SDS011;7247;53.330;-1.180;2022-11-18T14:05:16;2.60;;;1.17;;
14326;SDS011;7247;53.330;-1.180;2022-11-18T14:07:51;1.60;;;0.73;;
14326;SDS011;7247;53.330;-1.180;2022-11-18T14:10:27;2.07;;;1.10;;
14326;SDS011;7247;53.330;-1.180;2022-11-18T14:12:56;2.23;;;1.03;;
14326;SDS011;7247;53.330;-1.180;2022-11-18T14:15:32;1.80;;;1.10;;
14326;SDS011;7247;53.330;-1.180;2022-11-18T14:17:59;1.70;;;0.90;;
14326;SDS011;7247;53.330;-1.180;2022-11-18T14:20:26;1.90;;;1.00;;
14326;SDS011;7247;53.330;-1.180;2022-11-18T14:22:55;4.63;;;1.30;;
14326;SDS011;7247;53.330;-1.180;2022-11-18T14:25:23;3.10;;;1.20;;
14326;SDS011;7247;53.330;-1.180;2022-11-18T14:27:51;2.80;;;1.10;;
14326;SDS011;7247;53.330;-1.180;2022-11-18T14:33:09;5.27;;;1.40;;
14326;SDS011;7247;53.330;-1.180;2022-11-18T14:35:36;1.97;;;1.20;;
14326;SDS011;7247;53.330;-1.180;2022-11-18T14:38:09;1.67;;;1.10;;
14326;SDS011;7247;53.330;-1.180;2022-11-18T14:40:36;2.00;;;1.03;;
14326;SDS011;7247;53.330;-1.180;2022-11-18T14:43:03;5.17;;;1.17;;
14326;SDS011;7247;53.330;-1.180;2022-11-18T14:45:29;3.87;;;1.27;;
14326;SDS011;7247;53.330;-1.180;2022-11-18T14:47:56;5.40;;;1.53;;
14326;SDS011;7247;53.330;-1.180;2022-11-18T14:50:22;5.17;;;1.40;;
14326;SDS011;7247;53.330;-1.180;2022-11-18T14:52:49;4.23;;;1.50;;
14326;SDS011;7247;53.330;-1.180;2022-11-18T14:55:17;4.97;;;1.40;;
14326;SDS011;7247;53.330;-1.180;2022-11-18T14:57:43;3.53;;;1.50;;
14326;SDS011;7247;53.330;-1.180;2022-11-18T15:00:11;3.87;;;1.40;;
14326;SDS011;7247;53.330;-1.180;2022-11-18T15:02:38;4.33;;;1.50;;
14326;SDS011;7247;53.330;-1.180;2022-11-18T15:05:05;5.43;;;1.50;;
14326;SDS011;7247;53.330;-1.180;2022-11-18T15:07:31;4.67;;;1.60;;
14326;SDS011;7247;53.330;-1.180;2022-11-18T15:09:58;3.57;;;1.50;;
14326;SDS011;7247;53.330;-1.180;2022-11-18T15:12:25;5.27;;;1.30;;
14326;SDS011;7247;53.330;-1.180;2022-11-18T15:14:52;4.13;;;1.27;;
14326;SDS011;7247;53.330;-1.180;2022-11-18T15:17:18;4.87;;;1.73;;
14326;SDS011;7247;53.330;-1.180;2022-11-18T15:19:44;4.30;;;1.20;;